sensor_id;sensor_type;location;lat;lon;timestamp;temperature;humidity
78325;DHT22;67584;51.400;6.692;2023-07-20T00:00:49;16.50;80.30
78325;DHT22;67584;51.400;6.692;2023-07-20T00:03:19;16.50;80.50
78325;DHT22;67584;51.400;6.692;2023-07-20T00:05:48;16.50;80.20
78325;DHT22;67584;51.400;6.692;2023-07-20T00:08:15;16.40;80.40
78325;DHT22;67584;51.400;6.692;2023-07-20T00:10:41;16.40;80.50
78325;DHT22;67584;51.400;6.692;2023-07-20T00:13:07;16.50;80.60
78325;DHT22;67584;51.400;6.692;2023-07-20T00:15:33;16.40;80.90
78325;DHT22;67584;51.400;6.692;2023-07-20T00:17:59;16.30;81.00
78325;DHT22;67584;51.400;6.692;2023-07-20T00:20:25;16.30;81.40
78325;DHT22;67584;51.400;6.692;2023-07-20T00:22:51;16.10;81.30
78325;DHT22;67584;51.400;6.692;2023-07-20T00:25:17;16.10;81.90
78325;DHT22;67584;51.400;6.692;2023-07-20T00:27:43;16.00;81.80
78325;DHT22;67584;51.400;6.692;2023-07-20T00:30:09;16.00;82.00
78325;DHT22;67584;51.400;6.692;2023-07-20T00:32:35;15.90;82.10
78325;DHT22;67584;51.400;6.692;2023-07-20T00:35:01;15.90;82.20
78325;DHT22;67584;51.400;6.692;2023-07-20T00:37:28;15.80;82.10
78325;DHT22;67584;51.400;6.692;2023-07-20T00:39:54;15.90;82.70
78325;DHT22;67584;51.400;6.692;2023-07-20T00:42:20;15.80;82.40
78325;DHT22;67584;51.400;6.692;2023-07-20T00:44:46;16.00;82.80
78325;DHT22;67584;51.400;6.692;2023-07-20T00:47:11;15.90;82.60
78325;DHT22;67584;51.400;6.692;2023-07-20T00:49:38;16.00;82.60
78325;DHT22;67584;51.400;6.692;2023-07-20T00:52:06;16.10;82.50
78325;DHT22;67584;51.400;6.692;2023-07-20T00:54:33;16.20;82.20
78325;DHT22;67584;51.400;6.692;2023-07-20T00:57:01;16.20;82.00
78325;DHT22;67584;51.400;6.692;2023-07-20T00:59:27;16.20;82.20
78325;DHT22;67584;51.400;6.692;2023-07-20T01:01:53;16.30;82.30
78325;DHT22;67584;51.400;6.692;2023-07-20T01:04:19;16.40;82.30
78325;DHT22;67584;51.400;6.692;2023-07-20T01:07:10;16.50;82.10
78325;DHT22;67584;51.400;6.692;2023-07-20T01:14:42;16.50;81.70
78325;DHT22;67584;51.400;6.692;2023-07-20T01:17:08;16.60;81.80
78325;DHT22;67584;51.400;6.692;2023-07-20T01:19:33;16.60;81.40
78325;DHT22;67584;51.400;6.692;2023-07-20T01:33:36;16.00;89.50
78325;DHT22;67584;51.400;6.692;2023-07-20T01:36:02;16.00;89.40
78325;DHT22;67584;51.400;6.692;2023-07-20T01:38:28;15.90;89.60
78325;DHT22;67584;51.400;6.692;2023-07-20T01:40:55;15.90;89.40
78325;DHT22;67584;51.400;6.692;2023-07-20T01:43:21;15.90;89.80
78325;DHT22;67584;51.400;6.692;2023-07-20T01:45:47;15.90;89.50
78325;DHT22;67584;51.400;6.692;2023-07-20T01:48:13;16.00;88.40
78325;DHT22;67584;51.400;6.692;2023-07-20T01:50:38;15.90;88.00
78325;DHT22;67584;51.400;6.692;2023-07-20T01:53:04;16.00;87.90
78325;DHT22;67584;51.400;6.692;2023-07-20T01:55:30;15.90;88.10
78325;DHT22;67584;51.400;6.692;2023-07-20T01:57:55;15.90;89.00
78325;DHT22;67584;51.400;6.692;2023-07-20T02:00:22;15.70;89.90
78325;DHT22;67584;51.400;6.692;2023-07-20T02:02:50;15.70;89.20
78325;DHT22;67584;51.400;6.692;2023-07-20T02:05:16;15.60;89.80
78325;DHT22;67584;51.400;6.692;2023-07-20T02:07:42;15.50;89.40
78325;DHT22;67584;51.400;6.692;2023-07-20T02:10:08;15.40;89.70
78325;DHT22;67584;51.400;6.692;2023-07-20T02:12:34;15.50;90.50
78325;DHT22;67584;51.400;6.692;2023-07-20T02:15:01;15.50;89.90
78325;DHT22;67584;51.400;6.692;2023-07-20T02:17:27;15.50;90.10
78325;DHT22;67584;51.400;6.692;2023-07-20T02:19:53;15.60;90.30
78325;DHT22;67584;51.400;6.692;2023-07-20T02:22:20;15.50;90.60
78325;DHT22;67584;51.400;6.692;2023-07-20T02:24:47;15.50;90.10
78325;DHT22;67584;51.400;6.692;2023-07-20T02:27:12;15.30;90.20
78325;DHT22;67584;51.400;6.692;2023-07-20T02:29:40;15.50;90.50
78325;DHT22;67584;51.400;6.692;2023-07-20T02:32:06;15.50;90.20
78325;DHT22;67584;51.400;6.692;2023-07-20T02:34:32;15.60;90.40
78325;DHT22;67584;51.400;6.692;2023-07-20T02:36:58;15.50;90.10
78325;DHT22;67584;51.400;6.692;2023-07-20T02:39:29;15.60;90.70
78325;DHT22;67584;51.400;6.692;2023-07-20T02:41:55;15.70;90.30
78325;DHT22;67584;51.400;6.692;2023-07-20T02:44:21;15.70;90.80
78325;DHT22;67584;51.400;6.692;2023-07-20T02:46:47;15.70;90.40
78325;DHT22;67584;51.400;6.692;2023-07-20T02:49:15;15.60;90.20
78325;DHT22;67584;51.400;6.692;2023-07-20T02:51:42;15.40;90.50
78325;DHT22;67584;51.400;6.692;2023-07-20T02:54:08;15.30;89.80
78325;DHT22;67584;51.400;6.692;2023-07-20T02:56:33;15.30;89.90
78325;DHT22;67584;51.400;6.692;2023-07-20T02:59:01;15.20;90.70
78325;DHT22;67584;51.400;6.692;2023-07-20T03:01:27;15.20;90.90
78325;DHT22;67584;51.400;6.692;2023-07-20T03:03:57;15.20;91.10
78325;DHT22;67584;51.400;6.692;2023-07-20T03:06:23;15.10;91.70
78325;DHT22;67584;51.400;6.692;2023-07-20T03:08:49;15.10;91.20
78325;DHT22;67584;51.400;6.692;2023-07-20T03:11:18;15.00;91.20
78325;DHT22;67584;51.400;6.692;2023-07-20T03:13:44;14.90;91.60
78325;DHT22;67584;51.400;6.692;2023-07-20T03:16:12;15.00;92.00
78325;DHT22;67584;51.400;6.692;2023-07-20T03:18:38;15.10;92.00
78325;DHT22;67584;51.400;6.692;2023-07-20T03:21:05;15.00;91.90
78325;DHT22;67584;51.400;6.692;2023-07-20T03:23:31;15.10;91.90
78325;DHT22;67584;51.400;6.692;2023-07-20T03:25:57;15.00;91.40
78325;DHT22;67584;51.400;6.692;2023-07-20T03:28:23;15.00;91.70
78325;DHT22;67584;51.400;6.692;2023-07-20T03:30:55;15.00;91.20
78325;DHT22;67584;51.400;6.692;2023-07-20T03:33:26;15.00;91.80
78325;DHT22;67584;51.400;6.692;2023-07-20T03:35:52;15.00;91.30
78325;DHT22;67584;51.400;6.692;2023-07-20T03:38:18;15.10;91.80
78325;DHT22;67584;51.400;6.692;2023-07-20T03:43:18;15.30;91.80
78325;DHT22;67584;51.400;6.692;2023-07-20T03:45:44;15.30;91.90
78325;DHT22;67584;51.400;6.692;2023-07-20T03:48:12;15.40;91.90
78325;DHT22;67584;51.400;6.692;2023-07-20T03:50:38;15.40;91.90
78325;DHT22;67584;51.400;6.692;2023-07-20T03:53:04;15.40;91.90
78325;DHT22;67584;51.400;6.692;2023-07-20T03:55:29;15.50;91.70
78325;DHT22;67584;51.400;6.692;2023-07-20T03:57:55;15.50;91.60
78325;DHT22;67584;51.400;6.692;2023-07-20T04:00:21;15.40;91.50
78325;DHT22;67584;51.400;6.692;2023-07-20T04:02:49;15.50;91.70
78325;DHT22;67584;51.400;6.692;2023-07-20T04:05:14;15.60;91.80
78325;DHT22;67584;51.400;6.692;2023-07-20T04:07:40;15.50;91.70
78325;DHT22;67584;51.400;6.692;2023-07-20T04:10:06;15.60;91.80
78325;DHT22;67584;51.400;6.692;2023-07-20T04:12:35;15.60;91.90
78325;DHT22;67584;51.400;6.692;2023-07-20T04:15:00;15.60;91.80
78325;DHT22;67584;51.400;6.692;2023-07-20T04:17:27;15.70;91.30
78325;DHT22;67584;51.400;6.692;2023-07-20T04:19:52;15.70;90.90
78325;DHT22;67584;51.400;6.692;2023-07-20T04:22:18;15.60;91.00
78325;DHT22;67584;51.400;6.692;2023-07-20T04:24:44;15.50;91.40
78325;DHT22;67584;51.400;6.692;2023-07-20T04:27:09;15.50;91.30
78325;DHT22;67584;51.400;6.692;2023-07-20T04:29:35;15.60;91.40
78325;DHT22;67584;51.400;6.692;2023-07-20T04:32:01;15.60;91.50
78325;DHT22;67584;51.400;6.692;2023-07-20T04:34:27;15.60;91.30
78325;DHT22;67584;51.400;6.692;2023-07-20T04:36:53;15.50;91.30
78325;DHT22;67584;51.400;6.692;2023-07-20T04:39:19;15.50;91.50
78325;DHT22;67584;51.400;6.692;2023-07-20T04:41:45;15.50;91.30
78325;DHT22;67584;51.400;6.692;2023-07-20T04:44:12;15.50;91.70
78325;DHT22;67584;51.400;6.692;2023-07-20T04:46:39;15.60;91.60
78325;DHT22;67584;51.400;6.692;2023-07-20T04:49:06;15.60;91.20
78325;DHT22;67584;51.400;6.692;2023-07-20T04:51:36;15.60;90.70
78325;DHT22;67584;51.400;6.692;2023-07-20T04:54:01;15.90;91.00
78325;DHT22;67584;51.400;6.692;2023-07-20T04:56:32;15.80;91.10
78325;DHT22;67584;51.400;6.692;2023-07-20T04:58:59;16.10;91.00
78325;DHT22;67584;51.400;6.692;2023-07-20T05:01:25;16.30;90.50
78325;DHT22;67584;51.400;6.692;2023-07-20T05:03:52;16.40;90.20
78325;DHT22;67584;51.400;6.692;2023-07-20T05:06:18;16.40;89.90
78325;DHT22;67584;51.400;6.692;2023-07-20T05:08:45;16.30;90.00
78325;DHT22;67584;51.400;6.692;2023-07-20T05:11:11;16.50;90.10
78325;DHT22;67584;51.400;6.692;2023-07-20T05:13:37;16.50;89.70
78325;DHT22;67584;51.400;6.692;2023-07-20T05:16:03;16.60;89.30
78325;DHT22;67584;51.400;6.692;2023-07-20T05:18:30;16.50;89.40
78325;DHT22;67584;51.400;6.692;2023-07-20T05:20:56;16.50;89.40
78325;DHT22;67584;51.400;6.692;2023-07-20T05:23:22;16.50;89.00
78325;DHT22;67584;51.400;6.692;2023-07-20T05:25:59;16.40;89.30
78325;DHT22;67584;51.400;6.692;2023-07-20T05:28:26;16.50;89.50
78325;DHT22;67584;51.400;6.692;2023-07-20T05:30:52;16.50;89.10
78325;DHT22;67584;51.400;6.692;2023-07-20T05:33:22;16.60;89.20
78325;DHT22;67584;51.400;6.692;2023-07-20T05:35:48;16.50;89.10
78325;DHT22;67584;51.400;6.692;2023-07-20T05:38:14;16.60;88.80
78325;DHT22;67584;51.400;6.692;2023-07-20T05:40:44;16.80;88.70
78325;DHT22;67584;51.400;6.692;2023-07-20T05:43:10;16.90;88.10
78325;DHT22;67584;51.400;6.692;2023-07-20T05:45:37;17.00;87.80
78325;DHT22;67584;51.400;6.692;2023-07-20T05:48:02;17.00;87.60
78325;DHT22;67584;51.400;6.692;2023-07-20T05:50:28;17.10;87.30
78325;DHT22;67584;51.400;6.692;2023-07-20T05:52:54;17.10;87.30
78325;DHT22;67584;51.400;6.692;2023-07-20T05:55:20;16.70;86.70
78325;DHT22;67584;51.400;6.692;2023-07-20T05:57:46;16.70;87.00
78325;DHT22;67584;51.400;6.692;2023-07-20T06:00:14;16.70;87.10
78325;DHT22;67584;51.400;6.692;2023-07-20T06:02:41;16.60;87.20
78325;DHT22;67584;51.400;6.692;2023-07-20T06:05:07;16.70;87.20
78325;DHT22;67584;51.400;6.692;2023-07-20T06:07:37;16.70;86.70
78325;DHT22;67584;51.400;6.692;2023-07-20T06:10:03;16.90;86.80
78325;DHT22;67584;51.400;6.692;2023-07-20T06:12:29;17.00;86.40
78325;DHT22;67584;51.400;6.692;2023-07-20T06:14:55;17.40;85.50
78325;DHT22;67584;51.400;6.692;2023-07-20T06:17:21;17.80;83.90
78325;DHT22;67584;51.400;6.692;2023-07-20T06:19:47;18.10;84.00
78325;DHT22;67584;51.400;6.692;2023-07-20T06:22:12;18.20;82.70
78325;DHT22;67584;51.400;6.692;2023-07-20T06:24:38;18.20;82.60
78325;DHT22;67584;51.400;6.692;2023-07-20T06:27:04;18.50;82.10
78325;DHT22;67584;51.400;6.692;2023-07-20T06:29:31;18.60;81.10
78325;DHT22;67584;51.400;6.692;2023-07-20T06:31:56;18.60;80.90
78325;DHT22;67584;51.400;6.692;2023-07-20T06:34:22;18.60;81.20
78325;DHT22;67584;51.400;6.692;2023-07-20T06:36:49;18.80;80.40
78325;DHT22;67584;51.400;6.692;2023-07-20T06:39:14;18.90;80.00
78325;DHT22;67584;51.400;6.692;2023-07-20T06:41:43;18.80;80.20
78325;DHT22;67584;51.400;6.692;2023-07-20T06:44:09;19.00;80.00
78325;DHT22;67584;51.400;6.692;2023-07-20T06:46:34;18.90;79.70
78325;DHT22;67584;51.400;6.692;2023-07-20T06:49:00;18.90;79.80
78325;DHT22;67584;51.400;6.692;2023-07-20T06:51:26;18.90;79.40
78325;DHT22;67584;51.400;6.692;2023-07-20T06:53:52;19.00;79.50
78325;DHT22;67584;51.400;6.692;2023-07-20T06:56:17;19.20;78.90
78325;DHT22;67584;51.400;6.692;2023-07-20T06:58:43;19.10;78.50
78325;DHT22;67584;51.400;6.692;2023-07-20T07:01:09;19.20;78.40
78325;DHT22;67584;51.400;6.692;2023-07-20T07:03:35;19.00;78.50
78325;DHT22;67584;51.400;6.692;2023-07-20T07:06:00;19.20;78.20
78325;DHT22;67584;51.400;6.692;2023-07-20T07:08:26;19.40;77.30
78325;DHT22;67584;51.400;6.692;2023-07-20T07:10:52;19.90;76.70
78325;DHT22;67584;51.400;6.692;2023-07-20T07:13:18;20.30;75.90
78325;DHT22;67584;51.400;6.692;2023-07-20T07:15:44;20.50;74.60
78325;DHT22;67584;51.400;6.692;2023-07-20T07:18:11;20.60;73.30
78325;DHT22;67584;51.400;6.692;2023-07-20T07:20:36;20.50;73.30
78325;DHT22;67584;51.400;6.692;2023-07-20T07:23:02;20.90;73.00
78325;DHT22;67584;51.400;6.692;2023-07-20T07:25:28;20.90;71.60
78325;DHT22;67584;51.400;6.692;2023-07-20T07:27:54;21.00;71.80
78325;DHT22;67584;51.400;6.692;2023-07-20T07:30:21;21.00;71.60
78325;DHT22;67584;51.400;6.692;2023-07-20T07:32:46;21.00;70.60
78325;DHT22;67584;51.400;6.692;2023-07-20T07:35:12;21.20;70.70
78325;DHT22;67584;51.400;6.692;2023-07-20T07:37:38;21.40;70.30
78325;DHT22;67584;51.400;6.692;2023-07-20T07:40:04;21.50;69.10
78325;DHT22;67584;51.400;6.692;2023-07-20T07:42:31;20.80;68.00
78325;DHT22;67584;51.400;6.692;2023-07-20T07:44:57;20.50;70.60
78325;DHT22;67584;51.400;6.692;2023-07-20T07:47:23;20.00;70.40
78325;DHT22;67584;51.400;6.692;2023-07-20T07:49:48;19.70;72.80
78325;DHT22;67584;51.400;6.692;2023-07-20T07:52:14;19.50;73.30
78325;DHT22;67584;51.400;6.692;2023-07-20T07:54:40;19.50;73.10
78325;DHT22;67584;51.400;6.692;2023-07-20T07:57:06;19.90;73.00
78325;DHT22;67584;51.400;6.692;2023-07-20T07:59:31;19.90;72.60
78325;DHT22;67584;51.400;6.692;2023-07-20T08:02:03;20.10;72.40
78325;DHT22;67584;51.400;6.692;2023-07-20T08:04:30;20.10;72.80
78325;DHT22;67584;51.400;6.692;2023-07-20T08:06:55;20.60;71.30
78325;DHT22;67584;51.400;6.692;2023-07-20T08:09:21;21.00;70.00
78325;DHT22;67584;51.400;6.692;2023-07-20T08:11:47;21.40;69.20
78325;DHT22;67584;51.400;6.692;2023-07-20T08:14:13;21.40;68.50
78325;DHT22;67584;51.400;6.692;2023-07-20T08:16:39;21.50;67.10
78325;DHT22;67584;51.400;6.692;2023-07-20T08:19:05;21.40;67.30
78325;DHT22;67584;51.400;6.692;2023-07-20T08:21:30;21.30;68.10
78325;DHT22;67584;51.400;6.692;2023-07-20T08:23:56;21.50;67.40
78325;DHT22;67584;51.400;6.692;2023-07-20T08:26:23;21.90;66.20
78325;DHT22;67584;51.400;6.692;2023-07-20T08:28:49;22.40;64.80
78325;DHT22;67584;51.400;6.692;2023-07-20T08:31:14;22.60;64.80
78325;DHT22;67584;51.400;6.692;2023-07-20T08:33:40;23.00;63.50
78325;DHT22;67584;51.400;6.692;2023-07-20T08:36:06;22.90;62.70
78325;DHT22;67584;51.400;6.692;2023-07-20T08:38:32;23.20;59.70
78325;DHT22;67584;51.400;6.692;2023-07-20T08:40:57;22.40;63.10
78325;DHT22;67584;51.400;6.692;2023-07-20T08:43:27;22.40;62.00
78325;DHT22;67584;51.400;6.692;2023-07-20T08:45:54;21.50;62.30
78325;DHT22;67584;51.400;6.692;2023-07-20T08:48:22;21.00;64.80
78325;DHT22;67584;51.400;6.692;2023-07-20T08:50:50;20.90;66.40
78325;DHT22;67584;51.400;6.692;2023-07-20T08:53:16;20.50;67.20
78325;DHT22;67584;51.400;6.692;2023-07-20T08:55:44;20.50;66.90
78325;DHT22;67584;51.400;6.692;2023-07-20T08:58:12;20.50;67.10
78325;DHT22;67584;51.400;6.692;2023-07-20T09:00:38;20.40;67.00
78325;DHT22;67584;51.400;6.692;2023-07-20T09:03:04;21.00;65.70
78325;DHT22;67584;51.400;6.692;2023-07-20T09:05:30;21.90;62.80
78325;DHT22;67584;51.400;6.692;2023-07-20T09:07:56;21.80;59.50
78325;DHT22;67584;51.400;6.692;2023-07-20T09:10:23;21.70;61.50
78325;DHT22;67584;51.400;6.692;2023-07-20T09:12:49;22.50;60.20
78325;DHT22;67584;51.400;6.692;2023-07-20T09:15:15;23.10;59.30
78325;DHT22;67584;51.400;6.692;2023-07-20T09:17:49;23.10;56.60
78325;DHT22;67584;51.400;6.692;2023-07-20T09:20:16;23.50;58.00
78325;DHT22;67584;51.400;6.692;2023-07-20T09:22:42;23.90;56.80
78325;DHT22;67584;51.400;6.692;2023-07-20T09:25:12;24.60;55.00
78325;DHT22;67584;51.400;6.692;2023-07-20T09:27:42;25.10;54.30
78325;DHT22;67584;51.400;6.692;2023-07-20T09:30:09;24.20;48.80
78325;DHT22;67584;51.400;6.692;2023-07-20T09:32:41;23.40;54.10
78325;DHT22;67584;51.400;6.692;2023-07-20T09:35:19;23.20;52.90
78325;DHT22;67584;51.400;6.692;2023-07-20T09:37:58;22.30;53.60
78325;DHT22;67584;51.400;6.692;2023-07-20T09:40:25;22.20;57.50
78325;DHT22;67584;51.400;6.692;2023-07-20T09:42:52;22.90;55.70
78325;DHT22;67584;51.400;6.692;2023-07-20T09:45:19;24.00;54.40
78325;DHT22;67584;51.400;6.692;2023-07-20T09:47:45;25.00;52.20
78325;DHT22;67584;51.400;6.692;2023-07-20T09:50:11;26.00;50.10
78325;DHT22;67584;51.400;6.692;2023-07-20T09:52:41;26.40;47.00
78325;DHT22;67584;51.400;6.692;2023-07-20T09:55:08;25.40;50.10
78325;DHT22;67584;51.400;6.692;2023-07-20T09:57:35;25.60;49.30
78325;DHT22;67584;51.400;6.692;2023-07-20T10:00:06;24.50;48.00
78325;DHT22;67584;51.400;6.692;2023-07-20T10:02:41;24.90;48.80
78325;DHT22;67584;51.400;6.692;2023-07-20T10:05:13;24.70;50.40
78325;DHT22;67584;51.400;6.692;2023-07-20T10:07:50;24.20;50.00
78325;DHT22;67584;51.400;6.692;2023-07-20T10:10:17;23.40;53.10
78325;DHT22;67584;51.400;6.692;2023-07-20T10:12:44;23.50;52.10
78325;DHT22;67584;51.400;6.692;2023-07-20T10:18:12;25.20;46.90
78325;DHT22;67584;51.400;6.692;2023-07-20T10:20:37;25.10;47.60
78325;DHT22;67584;51.400;6.692;2023-07-20T10:23:05;25.70;47.00
78325;DHT22;67584;51.400;6.692;2023-07-20T10:25:31;27.20;44.40
78325;DHT22;67584;51.400;6.692;2023-07-20T10:27:58;28.40;41.40
78325;DHT22;67584;51.400;6.692;2023-07-20T10:30:25;27.30;43.30
78325;DHT22;67584;51.400;6.692;2023-07-20T10:32:51;26.80;43.90
78325;DHT22;67584;51.400;6.692;2023-07-20T10:35:18;27.00;43.80
78325;DHT22;67584;51.400;6.692;2023-07-20T10:37:55;26.90;39.10
78325;DHT22;67584;51.400;6.692;2023-07-20T10:43:03;29.50;37.60
78325;DHT22;67584;51.400;6.692;2023-07-20T10:45:49;29.00;35.00
78325;DHT22;67584;51.400;6.692;2023-07-20T10:50:42;27.90;38.50
78325;DHT22;67584;51.400;6.692;2023-07-20T10:55:38;26.10;42.40
78325;DHT22;67584;51.400;6.692;2023-07-20T10:58:22;25.40;42.60
78325;DHT22;67584;51.400;6.692;2023-07-20T11:01:03;24.60;45.50
78325;DHT22;67584;51.400;6.692;2023-07-20T11:03:31;25.30;45.60
78325;DHT22;67584;51.400;6.692;2023-07-20T11:05:58;27.30;42.30
78325;DHT22;67584;51.400;6.692;2023-07-20T11:09:02;30.10;36.80
78325;DHT22;67584;51.400;6.692;2023-07-20T11:11:32;29.70;37.40
78325;DHT22;67584;51.400;6.692;2023-07-20T11:14:03;30.20;34.70
78325;DHT22;67584;51.400;6.692;2023-07-20T11:16:34;30.10;34.20
78325;DHT22;67584;51.400;6.692;2023-07-20T11:19:01;29.80;36.50
78325;DHT22;67584;51.400;6.692;2023-07-20T11:21:26;29.20;37.20
78325;DHT22;67584;51.400;6.692;2023-07-20T11:23:53;28.00;38.90
78325;DHT22;67584;51.400;6.692;2023-07-20T11:26:19;26.70;41.40
78325;DHT22;67584;51.400;6.692;2023-07-20T11:28:51;26.40;39.80
78325;DHT22;67584;51.400;6.692;2023-07-20T11:31:18;26.60;40.30
78325;DHT22;67584;51.400;6.692;2023-07-20T11:33:44;27.10;40.30
78325;DHT22;67584;51.400;6.692;2023-07-20T11:36:10;28.30;37.30
78325;DHT22;67584;51.400;6.692;2023-07-20T11:38:35;28.60;37.90
78325;DHT22;67584;51.400;6.692;2023-07-20T11:41:04;29.70;36.40
78325;DHT22;67584;51.400;6.692;2023-07-20T11:43:30;31.40;33.60
78325;DHT22;67584;51.400;6.692;2023-07-20T11:45:56;31.90;33.00
78325;DHT22;67584;51.400;6.692;2023-07-20T11:48:22;32.40;32.00
78325;DHT22;67584;51.400;6.692;2023-07-20T11:50:48;31.60;32.70
78325;DHT22;67584;51.400;6.692;2023-07-20T11:53:14;30.90;33.20
78325;DHT22;67584;51.400;6.692;2023-07-20T11:55:40;31.40;32.40
78325;DHT22;67584;51.400;6.692;2023-07-20T11:58:07;31.30;33.30
78325;DHT22;67584;51.400;6.692;2023-07-20T12:00:34;30.60;33.60
78325;DHT22;67584;51.400;6.692;2023-07-20T12:03:00;29.20;36.00
78325;DHT22;67584;51.400;6.692;2023-07-20T12:05:26;28.10;37.40
78325;DHT22;67584;51.400;6.692;2023-07-20T12:07:52;26.40;39.50
78325;DHT22;67584;51.400;6.692;2023-07-20T12:10:24;25.40;41.90
78325;DHT22;67584;51.400;6.692;2023-07-20T12:12:51;25.80;41.70
78325;DHT22;67584;51.400;6.692;2023-07-20T12:15:20;25.70;40.70
78325;DHT22;67584;51.400;6.692;2023-07-20T12:17:49;25.50;40.80
78325;DHT22;67584;51.400;6.692;2023-07-20T12:20:25;25.10;41.30
78325;DHT22;67584;51.400;6.692;2023-07-20T12:22:51;25.60;41.60
78325;DHT22;67584;51.400;6.692;2023-07-20T12:25:17;27.60;39.30
78325;DHT22;67584;51.400;6.692;2023-07-20T12:27:45;29.70;35.80
78325;DHT22;67584;51.400;6.692;2023-07-20T12:30:11;30.20;34.50
78325;DHT22;67584;51.400;6.692;2023-07-20T12:32:38;31.20;34.20
78325;DHT22;67584;51.400;6.692;2023-07-20T12:35:04;33.00;32.10
78325;DHT22;67584;51.400;6.692;2023-07-20T12:37:31;33.50;30.80
78325;DHT22;67584;51.400;6.692;2023-07-20T12:39:57;32.50;32.20
78325;DHT22;67584;51.400;6.692;2023-07-20T12:42:23;30.80;34.00
78325;DHT22;67584;51.400;6.692;2023-07-20T12:44:49;30.00;34.30
78325;DHT22;67584;51.400;6.692;2023-07-20T12:47:17;28.50;36.80
78325;DHT22;67584;51.400;6.692;2023-07-20T12:49:43;27.90;37.60
78325;DHT22;67584;51.400;6.692;2023-07-20T12:52:11;28.30;36.90
78325;DHT22;67584;51.400;6.692;2023-07-20T12:54:36;28.10;37.10
78325;DHT22;67584;51.400;6.692;2023-07-20T12:57:02;27.20;37.70
78325;DHT22;67584;51.400;6.692;2023-07-20T12:59:29;27.10;38.20
78325;DHT22;67584;51.400;6.692;2023-07-20T13:01:54;27.20;38.20
78325;DHT22;67584;51.400;6.692;2023-07-20T13:04:20;27.50;37.90
78325;DHT22;67584;51.400;6.692;2023-07-20T13:06:46;27.50;38.10
78325;DHT22;67584;51.400;6.692;2023-07-20T13:09:11;27.70;37.30
78325;DHT22;67584;51.400;6.692;2023-07-20T13:11:37;28.00;37.20
78325;DHT22;67584;51.400;6.692;2023-07-20T13:14:03;27.40;38.20
78325;DHT22;67584;51.400;6.692;2023-07-20T13:16:28;27.00;39.00
78325;DHT22;67584;51.400;6.692;2023-07-20T13:18:54;27.60;38.40
78325;DHT22;67584;51.400;6.692;2023-07-20T13:21:20;29.00;36.30
78325;DHT22;67584;51.400;6.692;2023-07-20T13:23:48;30.70;33.30
78325;DHT22;67584;51.400;6.692;2023-07-20T13:26:15;30.20;32.80
78325;DHT22;67584;51.400;6.692;2023-07-20T13:28:41;29.50;34.00
78325;DHT22;67584;51.400;6.692;2023-07-20T13:31:06;28.80;34.50
78325;DHT22;67584;51.400;6.692;2023-07-20T13:33:34;28.30;35.80
78325;DHT22;67584;51.400;6.692;2023-07-20T13:36:00;28.00;36.00
78325;DHT22;67584;51.400;6.692;2023-07-20T13:38:26;27.40;36.70
78325;DHT22;67584;51.400;6.692;2023-07-20T13:40:52;26.60;37.90
78325;DHT22;67584;51.400;6.692;2023-07-20T13:43:17;26.50;38.10
78325;DHT22;67584;51.400;6.692;2023-07-20T13:45:43;26.30;38.30
78325;DHT22;67584;51.400;6.692;2023-07-20T13:48:09;26.50;38.70
78325;DHT22;67584;51.400;6.692;2023-07-20T13:50:34;26.40;38.50
78325;DHT22;67584;51.400;6.692;2023-07-20T13:53:00;26.20;39.10
78325;DHT22;67584;51.400;6.692;2023-07-20T13:55:28;26.70;38.60
78325;DHT22;67584;51.400;6.692;2023-07-20T13:57:54;27.10;38.70
78325;DHT22;67584;51.400;6.692;2023-07-20T14:00:19;28.30;37.10
78325;DHT22;67584;51.400;6.692;2023-07-20T14:02:45;30.00;34.60
78325;DHT22;67584;51.400;6.692;2023-07-20T14:05:11;32.00;32.20
78325;DHT22;67584;51.400;6.692;2023-07-20T14:07:36;34.60;29.80
78325;DHT22;67584;51.400;6.692;2023-07-20T14:10:02;36.40;27.30
78325;DHT22;67584;51.400;6.692;2023-07-20T14:12:28;36.20;26.40
78325;DHT22;67584;51.400;6.692;2023-07-20T14:14:54;35.00;27.20
78325;DHT22;67584;51.400;6.692;2023-07-20T14:17:21;33.80;28.40
78325;DHT22;67584;51.400;6.692;2023-07-20T14:19:47;35.30;28.30
78325;DHT22;67584;51.400;6.692;2023-07-20T14:22:12;36.90;26.30
78325;DHT22;67584;51.400;6.692;2023-07-20T14:24:38;38.00;26.10
78325;DHT22;67584;51.400;6.692;2023-07-20T14:27:04;36.30;26.60
78325;DHT22;67584;51.400;6.692;2023-07-20T14:29:30;34.60;28.30
78325;DHT22;67584;51.400;6.692;2023-07-20T14:31:57;35.70;27.50
78325;DHT22;67584;51.400;6.692;2023-07-20T14:34:23;37.80;25.40
78325;DHT22;67584;51.400;6.692;2023-07-20T14:36:48;37.90;25.30
78325;DHT22;67584;51.400;6.692;2023-07-20T14:39:15;38.40;25.00
78325;DHT22;67584;51.400;6.692;2023-07-20T14:41:41;37.90;25.00
78325;DHT22;67584;51.400;6.692;2023-07-20T14:44:06;35.90;26.50
78325;DHT22;67584;51.400;6.692;2023-07-20T14:46:32;33.50;28.80
78325;DHT22;67584;51.400;6.692;2023-07-20T14:48:58;31.60;30.90
78325;DHT22;67584;51.400;6.692;2023-07-20T14:51:24;31.10;31.30
78325;DHT22;67584;51.400;6.692;2023-07-20T14:53:49;31.10;32.00
78325;DHT22;67584;51.400;6.692;2023-07-20T14:56:15;32.10;31.10
78325;DHT22;67584;51.400;6.692;2023-07-20T14:58:41;31.80;30.70
78325;DHT22;67584;51.400;6.692;2023-07-20T15:01:06;32.00;30.20
78325;DHT22;67584;51.400;6.692;2023-07-20T15:03:32;31.10;31.30
78325;DHT22;67584;51.400;6.692;2023-07-20T15:05:58;30.00;32.80
78325;DHT22;67584;51.400;6.692;2023-07-20T15:08:23;29.40;33.70
78325;DHT22;67584;51.400;6.692;2023-07-20T15:10:49;29.50;33.60
78325;DHT22;67584;51.400;6.692;2023-07-20T15:13:15;29.10;34.10
78325;DHT22;67584;51.400;6.692;2023-07-20T15:15:40;31.90;31.50
78325;DHT22;67584;51.400;6.692;2023-07-20T15:18:07;34.10;28.40
78325;DHT22;67584;51.400;6.692;2023-07-20T15:20:32;34.90;27.60
78325;DHT22;67584;51.400;6.692;2023-07-20T15:22:58;34.40;27.60
78325;DHT22;67584;51.400;6.692;2023-07-20T15:25:24;34.90;27.50
78325;DHT22;67584;51.400;6.692;2023-07-20T15:27:50;35.30;27.30
78325;DHT22;67584;51.400;6.692;2023-07-20T15:30:16;33.80;28.80
78325;DHT22;67584;51.400;6.692;2023-07-20T15:32:42;34.00;29.10
78325;DHT22;67584;51.400;6.692;2023-07-20T15:35:09;34.00;28.40
78325;DHT22;67584;51.400;6.692;2023-07-20T15:37:35;33.70;28.50
78325;DHT22;67584;51.400;6.692;2023-07-20T15:40:02;35.50;27.60
78325;DHT22;67584;51.400;6.692;2023-07-20T15:42:31;38.10;25.30
78325;DHT22;67584;51.400;6.692;2023-07-20T15:44:57;36.90;25.50
78325;DHT22;67584;51.400;6.692;2023-07-20T15:47:23;37.70;25.00
78325;DHT22;67584;51.400;6.692;2023-07-20T15:49:48;37.60;25.40
78325;DHT22;67584;51.400;6.692;2023-07-20T15:52:14;38.60;24.50
78325;DHT22;67584;51.400;6.692;2023-07-20T15:54:40;38.80;23.80
78325;DHT22;67584;51.400;6.692;2023-07-20T15:57:06;38.30;23.70